Time;durP1;ratioP1;P1;durP2;ratioP2;P2;SDS_P1;SDS_P2;PMS_P1;PMS_P2;Temp;Humidity;BMP_temperature;BMP_pressure;BME280_temperature;BME280_humidity;BME280_pressure;Samples;Min_cycle;Max_cycle;Signal;HPM_P1;HPM_P2
2021/12/17 00:00:19;;;;;;;5.77;4.70;;;;;;;;;;5053764;28;20277;-87
2021/12/17 00:05:46;;;;;;;5.97;4.40;;;;;;;;;;5053491;28;20213;-87
2021/12/17 00:08:14;;;;;;;5.73;4.60;;;;;;;;;;5323839;22;20230;-84
2021/12/17 00:10:42;;;;;;;4.60;3.57;;;;;;;;;;5113004;28;20623;-84
2021/12/17 00:13:10;;;;;;;5.33;3.87;;;;;;;;;;5113256;28;20222;-84
2021/12/17 00:15:38;;;;;;;4.60;4.00;;;;;;;;;;5108836;28;20548;-83
2021/12/17 00:18:14;;;;;;;7.23;4.27;;;;;;;;;;5091886;28;20232;-84
2021/12/17 00:40:32;;;;;;;7.60;4.50;;;;;;;;;;5092745;28;20571;-84
2021/12/17 00:48:38;;;;;;;7.63;4.87;;;;;;;;;;5093050;28;20281;-84
2021/12/17 00:53:59;;;;;;;8.87;5.40;;;;;;;;;;5078376;28;20189;-84
2021/12/17 00:56:28;;;;;;;6.70;4.63;;;;;;;;;;5092098;28;20180;-84
2021/12/17 00:58:56;;;;;;;5.63;4.40;;;;;;;;;;5092660;28;20242;-83
2021/12/17 01:01:24;;;;;;;5.37;4.33;;;;;;;;;;5092484;28;20215;-84
2021/12/17 01:03:52;;;;;;;5.47;4.17;;;;;;;;;;5092258;28;20200;-84
2021/12/17 01:06:21;;;;;;;6.03;4.20;;;;;;;;;;5092326;28;20254;-83
2021/12/17 01:08:49;;;;;;;5.83;4.63;;;;;;;;;;5092108;28;20264;-84
2021/12/17 01:11:16;;;;;;;6.60;4.10;;;;;;;;;;5091989;28;20220;-83
2021/12/17 01:13:44;;;;;;;4.43;4.00;;;;;;;;;;5092149;28;20188;-83
2021/12/17 01:16:12;;;;;;;3.90;3.40;;;;;;;;;;5092077;28;20239;-83
2021/12/17 01:18:49;;;;;;;4.80;3.57;;;;;;;;;;5092054;28;20196;-84
2021/12/17 01:24:14;;;;;;;5.40;4.13;;;;;;;;;;5086685;28;20290;-84
2021/12/17 01:43:31;;;;;;;5.57;4.07;;;;;;;;;;5116754;28;20262;-84
2021/12/17 01:45:59;;;;;;;4.03;3.63;;;;;;;;;;5116284;28;20195;-84
2021/12/17 01:48:34;;;;;;;4.97;4.00;;;;;;;;;;5116304;28;20195;-84
2021/12/17 01:56:50;;;;;;;5.57;4.33;;;;;;;;;;5116904;28;20183;-83
2021/12/17 01:59:32;;;;;;;6.13;4.60;;;;;;;;;;5116106;28;20237;-84
2021/12/17 02:02:03;;;;;;;7.37;4.70;;;;;;;;;;5100713;28;20200;-84
2021/12/17 02:04:31;;;;;;;8.10;4.93;;;;;;;;;;5095652;28;20242;-84
2021/12/17 02:06:59;;;;;;;7.37;5.83;;;;;;;;;;5095498;28;20200;-84
2021/12/17 02:12:36;;;;;;;5.67;5.00;;;;;;;;;;5069224;28;20259;-84
2021/12/17 02:28:54;;;;;;;7.17;4.70;;;;;;;;;;5095534;28;20175;-84
2021/12/17 02:31:27;;;;;;;6.10;4.63;;;;;;;;;;5095328;28;20242;-84
2021/12/17 02:33:56;;;;;;;5.20;4.43;;;;;;;;;;5095010;28;20185;-84
2021/12/17 02:36:28;;;;;;;7.57;4.27;;;;;;;;;;5094925;28;20232;-84
2021/12/17 02:39:07;;;;;;;5.70;4.57;;;;;;;;;;5095193;28;20184;-84
2021/12/17 02:47:07;;;;;;;4.90;4.40;;;;;;;;;;5094892;28;20188;-84
2021/12/17 02:49:35;;;;;;;7.73;4.97;;;;;;;;;;5093755;28;20227;-84
2021/12/17 02:52:06;;;;;;;5.33;4.57;;;;;;;;;;5094708;28;20699;-83
2021/12/17 02:54:35;;;;;;;7.40;5.10;;;;;;;;;;5094950;28;20185;-84
2021/12/17 02:57:03;;;;;;;5.33;4.57;;;;;;;;;;5094861;28;20204;-84
2021/12/17 02:59:33;;;;;;;4.57;4.07;;;;;;;;;;5094498;28;20253;-84
2021/12/17 03:02:00;;;;;;;7.83;4.63;;;;;;;;;;5094526;28;20200;-84
2021/12/17 03:04:29;;;;;;;5.70;4.37;;;;;;;;;;5094442;28;20203;-84
2021/12/17 03:06:57;;;;;;;5.40;4.73;;;;;;;;;;5094657;28;20629;-84
2021/12/17 03:09:42;;;;;;;5.53;4.90;;;;;;;;;;5094368;28;20250;-83
2021/12/17 03:12:16;;;;;;;6.53;5.10;;;;;;;;;;5094250;28;20687;-84
2021/12/17 03:14:51;;;;;;;5.83;4.83;;;;;;;;;;5094215;28;20189;-83
2021/12/17 03:17:35;;;;;;;6.17;4.03;;;;;;;;;;5094148;28;20184;-84
2021/12/17 03:25:32;;;;;;;6.07;4.63;;;;;;;;;;5094462;28;20180;-84
2021/12/17 03:28:00;;;;;;;6.43;4.60;;;;;;;;;;5094000;28;20684;-84
2021/12/17 03:30:27;;;;;;;5.27;4.03;;;;;;;;;;5103022;28;20199;-84
2021/12/17 03:32:54;;;;;;;4.33;3.93;;;;;;;;;;5114083;28;20310;-84
2021/12/17 03:35:21;;;;;;;4.57;3.83;;;;;;;;;;5114287;28;20720;-84
2021/12/17 03:37:49;;;;;;;5.13;4.20;;;;;;;;;;5114089;28;20196;-84
2021/12/17 03:40:18;;;;;;;7.17;4.60;;;;;;;;;;5114075;28;20196;-84
2021/12/17 03:42:49;;;;;;;6.27;4.37;;;;;;;;;;5114253;28;20198;-84
2021/12/17 03:45:17;;;;;;;5.90;4.20;;;;;;;;;;5114240;28;20644;-84
2021/12/17 03:47:45;;;;;;;5.27;3.90;;;;;;;;;;5114076;28;20230;-84
2021/12/17 03:50:13;;;;;;;5.53;4.40;;;;;;;;;;5113809;28;20203;-83
2021/12/17 03:52:40;;;;;;;6.10;4.50;;;;;;;;;;5113816;28;20219;-84
2021/12/17 03:55:08;;;;;;;5.93;4.30;;;;;;;;;;5113743;28;20680;-84
2021/12/17 03:57:36;;;;;;;8.43;5.83;;;;;;;;;;5113714;28;20196;-84
2021/12/17 04:00:07;;;;;;;5.47;4.63;;;;;;;;;;5113419;28;20202;-84
2021/12/17 04:02:34;;;;;;;5.07;4.20;;;;;;;;;;5113652;28;20184;-84
2021/12/17 04:05:02;;;;;;;4.83;4.37;;;;;;;;;;5114666;28;20617;-84
2021/12/17 04:07:29;;;;;;;6.10;4.53;;;;;;;;;;5113589;28;20636;-83
2021/12/17 04:09:56;;;;;;;6.17;4.10;;;;;;;;;;5113573;28;20188;-84
2021/12/17 04:12:36;;;;;;;4.07;3.67;;;;;;;;;;5113237;28;20223;-84
2021/12/17 04:15:05;;;;;;;4.43;3.80;;;;;;;;;;5113918;28;20619;-84
2021/12/17 04:17:41;;;;;;;5.93;4.53;;;;;;;;;;5113492;28;20199;-84
2021/12/17 04:20:10;;;;;;;3.83;3.43;;;;;;;;;;5113548;28;20194;-84
2021/12/17 04:22:37;;;;;;;5.77;3.83;;;;;;;;;;5113182;28;20202;-84
2021/12/17 04:25:05;;;;;;;6.53;4.37;;;;;;;;;;5113179;28;20202;-84
2021/12/17 04:27:32;;;;;;;5.57;4.63;;;;;;;;;;5113457;28;20278;-83
2021/12/17 04:29:59;;;;;;;4.93;4.10;;;;;;;;;;5113510;28;20555;-83
2021/12/17 04:32:28;;;;;;;4.87;4.33;;;;;;;;;;5112955;28;20699;-84
2021/12/17 04:34:56;;;;;;;4.70;3.80;;;;;;;;;;5113321;28;20192;-83
2021/12/17 04:37:23;;;;;;;5.47;3.67;;;;;;;;;;5113251;28;20347;-84
2021/12/17 04:39:51;;;;;;;5.20;4.43;;;;;;;;;;5113002;28;20199;-84
2021/12/17 04:42:24;;;;;;;4.17;3.77;;;;;;;;;;5113180;28;20652;-84
2021/12/17 04:44:55;;;;;;;4.70;4.03;;;;;;;;;;5113093;28;20190;-84
2021/12/17 04:58:23;;;;;;;5.50;3.97;;;;;;;;;;5111801;28;20183;-83
2021/12/17 05:00:50;;;;;;;4.73;4.23;;;;;;;;;;5111857;28;20645;-84
2021/12/17 05:03:18;;;;;;;4.57;3.73;;;;;;;;;;5111219;28;20183;-83
2021/12/17 05:05:47;;;;;;;5.00;4.13;;;;;;;;;;5111817;28;20204;-83
2021/12/17 05:08:17;;;;;;;4.57;3.40;;;;;;;;;;5111415;28;20318;-83
2021/12/17 05:11:01;;;;;;;4.90;3.97;;;;;;;;;;5111160;28;20577;-83
2021/12/17 05:19:03;;;;;;;4.30;3.33;;;;;;;;;;5111718;28;20179;-84
2021/12/17 05:21:32;;;;;;;5.73;4.30;;;;;;;;;;5105510;28;20192;-83
2021/12/17 05:23:59;;;;;;;4.50;3.87;;;;;;;;;;5091134;28;20216;-83
2021/12/17 05:26:26;;;;;;;5.23;4.20;;;;;;;;;;5091229;28;20189;-83
2021/12/17 05:28:55;;;;;;;3.93;3.43;;;;;;;;;;5090612;28;20702;-83
2021/12/17 05:31:23;;;;;;;6.40;4.47;;;;;;;;;;5091122;28;20626;-83
2021/12/17 05:33:50;;;;;;;5.80;4.30;;;;;;;;;;5103586;28;20278;-83
2021/12/17 05:36:18;;;;;;;5.53;4.43;;;;;;;;;;5092419;28;20273;-83
2021/12/17 05:38:47;;;;;;;5.43;4.37;;;;;;;;;;5094007;28;20210;-83
2021/12/17 05:41:14;;;;;;;4.53;3.90;;;;;;;;;;5091776;28;20196;-83
2021/12/17 05:43:41;;;;;;;5.97;4.47;;;;;;;;;;5091831;28;20204;-83
2021/12/17 05:46:11;;;;;;;9.93;6.03;;;;;;;;;;5091392;28;20204;-83
2021/12/17 05:48:39;;;;;;;18.00;11.93;;;;;;;;;;5092439;28;20192;-83
2021/12/17 05:51:09;;;;;;;9.43;7.77;;;;;;;;;;5091778;28;20209;-83
2021/12/17 05:53:36;;;;;;;8.30;5.93;;;;;;;;;;5091713;28;20224;-83
2021/12/17 05:56:05;;;;;;;6.07;5.30;;;;;;;;;;5091788;28;20218;-83
2021/12/17 05:58:33;;;;;;;7.43;5.50;;;;;;;;;;5091770;28;20204;-83
2021/12/17 06:01:00;;;;;;;7.63;5.73;;;;;;;;;;5091716;28;20189;-83
2021/12/17 06:03:27;;;;;;;8.10;5.83;;;;;;;;;;5092029;28;20574;-83
2021/12/17 06:05:55;;;;;;;7.03;5.90;;;;;;;;;;5091862;28;20192;-83
2021/12/17 06:08:22;;;;;;;6.73;4.70;;;;;;;;;;5091481;28;20232;-83
2021/12/17 06:10:49;;;;;;;4.67;4.03;;;;;;;;;;5091669;28;20212;-83
2021/12/17 06:13:18;;;;;;;5.00;4.50;;;;;;;;;;5091608;28;20270;-83
2021/12/17 06:15:45;;;;;;;5.37;4.67;;;;;;;;;;5091572;28;20200;-83
2021/12/17 06:18:14;;;;;;;6.93;5.60;;;;;;;;;;5091521;28;20204;-83
2021/12/17 06:20:41;;;;;;;7.40;5.53;;;;;;;;;;5091475;28;20207;-83
2021/12/17 06:23:08;;;;;;;9.93;7.20;;;;;;;;;;5093643;28;20192;-83
2021/12/17 06:25:36;;;;;;;10.03;7.97;;;;;;;;;;5095251;28;20200;-83
2021/12/17 06:28:03;;;;;;;8.70;7.17;;;;;;;;;;5095113;28;20196;-83
2021/12/17 06:30:32;;;;;;;5.43;3.90;;;;;;;;;;5095102;28;20740;-83
2021/12/17 06:32:59;;;;;;;6.23;5.17;;;;;;;;;;5095298;28;20270;-83
2021/12/17 06:35:26;;;;;;;7.53;6.13;;;;;;;;;;5095099;28;20188;-83
2021/12/17 06:37:53;;;;;;;5.13;4.63;;;;;;;;;;5095001;28;20200;-83
2021/12/17 06:40:21;;;;;;;5.63;4.40;;;;;;;;;;5094959;28;20257;-83
2021/12/17 06:42:48;;;;;;;3.43;3.13;;;;;;;;;;5094899;28;20285;-83
2021/12/17 06:45:21;;;;;;;3.73;3.40;;;;;;;;;;5094870;28;20682;-83
2021/12/17 06:47:56;;;;;;;6.07;3.97;;;;;;;;;;5094880;28;20223;-83
2021/12/17 06:58:54;;;;;;;12.37;6.70;;;;;;;;;;5063829;28;20192;-83
2021/12/17 07:05:55;;;;;;;13.53;7.70;;;;;;;;;;5094885;28;20197;-83
2021/12/17 07:07:27;;;;;;;7.40;6.60;;;;;;;;;;5094556;28;20303;-83
2021/12/17 07:18:35;;;;;;;5.03;3.83;;;;;;;;;;5094667;28;20180;-83
2021/12/17 07:21:16;;;;;;;6.00;5.27;;;;;;;;;;5094073;28;20207;-83
2021/12/17 07:24:25;;;;;;;6.83;4.90;;;;;;;;;;5094314;28;20200;-83
2021/12/17 07:32:33;;;;;;;5.93;5.20;;;;;;;;;;5093792;28;20467;-83
2021/12/17 07:35:25;;;;;;;4.10;3.47;;;;;;;;;;5091399;28;20245;-83
2021/12/17 07:40:39;;;;;;;4.43;3.60;;;;;;;;;;5094421;28;20182;-83
2021/12/17 07:43:12;;;;;;;5.63;4.33;;;;;;;;;;5093726;28;20227;-83
2021/12/17 07:45:40;;;;;;;6.60;4.70;;;;;;;;;;5093716;28;20633;-83
2021/12/17 07:48:08;;;;;;;5.67;4.97;;;;;;;;;;5093891;28;20222;-83
2021/12/17 07:50:35;;;;;;;6.63;5.00;;;;;;;;;;5093553;28;20286;-83
2021/12/17 07:53:04;;;;;;;5.20;4.70;;;;;;;;;;5093466;28;20276;-83
2021/12/17 07:55:32;;;;;;;4.97;3.80;;;;;;;;;;5094026;28;20270;-83
2021/12/17 07:57:59;;;;;;;3.90;3.50;;;;;;;;;;5093552;28;20291;-83
2021/12/17 08:00:27;;;;;;;5.20;4.70;;;;;;;;;;5093323;28;20724;-83
2021/12/17 08:02:54;;;;;;;4.80;4.30;;;;;;;;;;5093390;28;20343;-83
2021/12/17 08:05:21;;;;;;;5.70;4.83;;;;;;;;;;5093288;28;20192;-83
2021/12/17 08:07:49;;;;;;;4.33;3.93;;;;;;;;;;5093264;28;20247;-83
2021/12/17 08:10:17;;;;;;;16.17;12.17;;;;;;;;;;5093220;28;20249;-83
2021/12/17 08:12:45;;;;;;;3.70;3.40;;;;;;;;;;5093278;28;20297;-83
2021/12/17 08:15:13;;;;;;;3.93;3.53;;;;;;;;;;5093109;28;20661;-82
2021/12/17 08:17:54;;;;;;;4.23;3.83;;;;;;;;;;5093408;28;20211;-83
2021/12/17 08:26:13;;;;;;;3.93;3.63;;;;;;;;;;5092614;28;20199;-83
2021/12/17 08:28:53;;;;;;;4.30;3.70;;;;;;;;;;5092917;28;20184;-83
2021/12/17 08:31:21;;;;;;;3.37;3.07;;;;;;;;;;5092839;28;20206;-83
2021/12/17 08:33:48;;;;;;;3.73;3.43;;;;;;;;;;5092720;28;20224;-83
2021/12/17 08:36:16;;;;;;;4.17;3.77;;;;;;;;;;5092695;28;20222;-83
2021/12/17 08:38:43;;;;;;;5.97;2.87;;;;;;;;;;5092716;28;20203;-83
2021/12/17 08:41:12;;;;;;;3.80;3.50;;;;;;;;;;5092629;28;20235;-83
2021/12/17 08:43:40;;;;;;;3.93;3.13;;;;;;;;;;5092645;28;20189;-84
2021/12/17 08:46:08;;;;;;;4.47;3.70;;;;;;;;;;5091610;28;20287;-84
2021/12/17 08:48:35;;;;;;;3.97;3.67;;;;;;;;;;5092783;28;20196;-84
2021/12/17 08:51:04;;;;;;;3.70;3.20;;;;;;;;;;5092736;28;20261;-84
2021/12/17 08:53:31;;;;;;;4.00;3.60;;;;;;;;;;5092389;28;20704;-84
2021/12/17 08:55:58;;;;;;;4.83;4.03;;;;;;;;;;5092779;28;20672;-83
2021/12/17 08:58:27;;;;;;;4.47;3.90;;;;;;;;;;5092386;28;20286;-84
2021/12/17 09:00:54;;;;;;;3.77;3.37;;;;;;;;;;5092398;28;20200;-84
2021/12/17 09:03:22;;;;;;;3.67;3.20;;;;;;;;;;5092335;28;20667;-83
2021/12/17 09:05:49;;;;;;;4.50;3.47;;;;;;;;;;5092254;28;20196;-83
2021/12/17 09:08:17;;;;;;;3.10;2.80;;;;;;;;;;5092337;28;20236;-84
2021/12/17 09:10:45;;;;;;;4.57;4.00;;;;;;;;;;5092230;28;20660;-84
2021/12/17 09:13:12;;;;;;;6.97;3.77;;;;;;;;;;5092443;28;20220;-83
2021/12/17 09:15:41;;;;;;;5.00;4.00;;;;;;;;;;5092188;28;20261;-84
2021/12/17 09:18:09;;;;;;;4.37;3.97;;;;;;;;;;5092156;28;20197;-83
2021/12/17 09:20:36;;;;;;;4.30;3.87;;;;;;;;;;5092024;28;20246;-83
2021/12/17 09:23:04;;;;;;;3.77;3.47;;;;;;;;;;5092026;28;20245;-83
2021/12/17 09:25:31;;;;;;;2.37;2.17;;;;;;;;;;5092251;28;20611;-84
2021/12/17 09:27:58;;;;;;;2.80;2.60;;;;;;;;;;5092101;28;20184;-84
2021/12/17 09:30:26;;;;;;;5.30;4.00;;;;;;;;;;5092368;28;20235;-84
2021/12/17 09:32:54;;;;;;;2.97;2.67;;;;;;;;;;5092264;28;20636;-84
2021/12/17 09:35:24;;;;;;;3.67;2.77;;;;;;;;;;5092023;28;20202;-83
2021/12/17 09:37:52;;;;;;;3.43;3.07;;;;;;;;;;5091973;28;20672;-83
2021/12/17 09:40:19;;;;;;;3.00;2.30;;;;;;;;;;5091843;28;20249;-84
2021/12/17 09:42:47;;;;;;;4.80;4.30;;;;;;;;;;5092322;28;20566;-83
2021/12/17 09:45:16;;;;;;;6.53;5.80;;;;;;;;;;5092167;28;20227;-84
2021/12/17 09:47:44;;;;;;;3.27;2.97;;;;;;;;;;5091821;28;20257;-84
2021/12/17 09:50:17;;;;;;;2.17;1.97;;;;;;;;;;5092388;28;20282;-84
2021/12/17 09:52:44;;;;;;;2.77;2.57;;;;;;;;;;5091284;28;20212;-84
2021/12/17 09:55:12;;;;;;;3.23;2.93;;;;;;;;;;5091971;28;20222;-83
2021/12/17 09:57:39;;;;;;;2.97;2.60;;;;;;;;;;5093244;28;20199;-83
2021/12/17 10:00:09;;;;;;;3.37;2.90;;;;;;;;;;5095687;28;20660;-83
2021/12/17 10:02:37;;;;;;;2.43;2.10;;;;;;;;;;5095738;28;20242;-83
2021/12/17 10:05:05;;;;;;;2.20;2.00;;;;;;;;;;5095648;28;20676;-83
2021/12/17 10:07:35;;;;;;;2.70;2.43;;;;;;;;;;5095645;28;20228;-83
2021/12/17 10:10:05;;;;;;;2.73;2.07;;;;;;;;;;5095821;28;20188;-84
2021/12/17 10:12:34;;;;;;;3.37;2.70;;;;;;;;;;5095480;28;20280;-83
2021/12/17 10:15:05;;;;;;;2.20;2.00;;;;;;;;;;5095237;28;20249;-83
2021/12/17 10:17:33;;;;;;;2.73;2.40;;;;;;;;;;5094323;28;20189;-83
2021/12/17 10:20:00;;;;;;;3.33;2.70;;;;;;;;;;5093505;28;20291;-83
2021/12/17 10:22:29;;;;;;;4.00;2.73;;;;;;;;;;5093304;28;20197;-84
2021/12/17 10:25:05;;;;;;;2.80;2.50;;;;;;;;;;5093386;28;20275;-83
2021/12/17 10:27:33;;;;;;;2.70;2.50;;;;;;;;;;5093384;28;20191;-83
2021/12/17 10:30:12;;;;;;;2.97;2.67;;;;;;;;;;5093620;28;20586;-83
2021/12/17 10:32:42;;;;;;;2.83;2.53;;;;;;;;;;5094094;28;20195;-84
2021/12/17 10:35:12;;;;;;;3.43;3.13;;;;;;;;;;5095410;28;20656;-83
2021/12/17 10:37:42;;;;;;;6.73;5.23;;;;;;;;;;5095022;28;20180;-84
2021/12/17 10:40:19;;;;;;;5.83;3.80;;;;;;;;;;5094949;28;20204;-83
2021/12/17 10:45:31;;;;;;;4.10;3.63;;;;;;;;;;5093941;28;20287;-84
2021/12/17 10:48:21;;;;;;;9.17;6.23;;;;;;;;;;5094801;28;20184;-83
2021/12/17 10:50:48;;;;;;;5.37;3.60;;;;;;;;;;5095006;28;20226;-84
2021/12/17 10:53:16;;;;;;;2.10;2.00;;;;;;;;;;5094666;28;20289;-84
2021/12/17 10:55:47;;;;;;;2.87;2.27;;;;;;;;;;5094729;28;20197;-84
2021/12/17 10:58:14;;;;;;;4.27;2.87;;;;;;;;;;5094639;28;20187;-83
2021/12/17 11:01:07;;;;;;;2.37;2.10;;;;;;;;;;5094645;28;20336;-83
2021/12/17 11:03:37;;;;;;;1.87;1.77;;;;;;;;;;5094519;28;20207;-84
2021/12/17 11:06:05;;;;;;;1.37;1.27;;;;;;;;;;5094870;28;20173;-84
2021/12/17 11:08:34;;;;;;;2.50;2.30;;;;;;;;;;5093755;28;20709;-83
2021/12/17 11:11:11;;;;;;;1.60;1.50;;;;;;;;;;5094615;28;20200;-84
2021/12/17 11:13:38;;;;;;;1.90;1.40;;;;;;;;;;5094249;28;20214;-84
2021/12/17 11:16:06;;;;;;;2.60;1.90;;;;;;;;;;5094382;28;20205;-84
2021/12/17 11:18:33;;;;;;;1.63;1.53;;;;;;;;;;5094246;28;20736;-84
2021/12/17 11:21:00;;;;;;;2.03;1.83;;;;;;;;;;5094235;28;20196;-84
2021/12/17 11:23:32;;;;;;;2.50;2.30;;;;;;;;;;5094283;28;20188;-84
2021/12/17 11:25:59;;;;;;;3.13;2.30;;;;;;;;;;5094165;28;20597;-84
2021/12/17 11:28:28;;;;;;;2.00;1.90;;;;;;;;;;5094304;28;20637;-84
2021/12/17 11:30:56;;;;;;;1.60;1.50;;;;;;;;;;5093938;28;20208;-84
2021/12/17 11:33:23;;;;;;;3.00;2.70;;;;;;;;;;5093908;28;20719;-83
2021/12/17 11:35:52;;;;;;;4.40;3.23;;;;;;;;;;5094162;28;20702;-84
2021/12/17 11:38:29;;;;;;;1.97;1.87;;;;;;;;;;5094049;28;20200;-84
2021/12/17 11:41:05;;;;;;;14.83;8.60;;;;;;;;;;5093884;28;20194;-84
2021/12/17 11:43:48;;;;;;;31.67;21.33;;;;;;;;;;5093794;28;20233;-84
2021/12/17 11:46:16;;;;;;;12.37;8.10;;;;;;;;;;5093855;28;20632;-84
2021/12/17 11:48:50;;;;;;;35.77;21.43;;;;;;;;;;5093682;28;20201;-83
2021/12/17 11:51:19;;;;;;;70.13;43.30;;;;;;;;;;5094160;28;20214;-84
2021/12/17 11:54:07;;;;;;;25.47;18.47;;;;;;;;;;5093831;28;20262;-84
2021/12/17 11:56:41;;;;;;;14.83;11.80;;;;;;;;;;5093440;28;20257;-84
2021/12/17 11:59:12;;;;;;;14.10;11.23;;;;;;;;;;5093767;28;20642;-84
2021/12/17 12:01:55;;;;;;;11.27;7.87;;;;;;;;;;5093463;28;20238;-84
2021/12/17 12:04:44;;;;;;;14.83;11.07;;;;;;;;;;5093628;28;20601;-83
2021/12/17 12:07:12;;;;;;;18.70;14.03;;;;;;;;;;5093784;28;20249;-83
2021/12/17 12:09:57;;;;;;;14.33;12.20;;;;;;;;;;5093300;28;20636;-84
2021/12/17 12:12:26;;;;;;;8.47;7.23;;;;;;;;;;5093507;28;20592;-83
2021/12/17 12:14:55;;;;;;;8.03;7.23;;;;;;;;;;5093401;28;20228;-84
2021/12/17 12:18:02;;;;;;;24.33;17.90;;;;;;;;;;5093070;28;20741;-83
2021/12/17 12:20:53;;;;;;;15.83;12.80;;;;;;;;;;5093104;28;20672;-83
2021/12/17 12:23:22;;;;;;;10.50;9.13;;;;;;;;;;5093345;28;20235;-84
2021/12/17 12:26:13;;;;;;;16.60;12.20;;;;;;;;;;5092869;28;20197;-84
2021/12/17 12:28:52;;;;;;;11.60;9.67;;;;;;;;;;5093144;28;20184;-83
2021/12/17 12:31:44;;;;;;;16.80;11.73;;;;;;;;;;5092876;28;20185;-83
2021/12/17 12:34:14;;;;;;;21.60;14.17;;;;;;;;;;5092921;28;20653;-84
2021/12/17 12:36:49;;;;;;;28.57;19.20;;;;;;;;;;5092723;28;20231;-84
2021/12/17 12:39:18;;;;;;;34.30;20.97;;;;;;;;;;5092595;28;20191;-84
2021/12/17 12:41:47;;;;;;;12.87;9.37;;;;;;;;;;5092799;28;20196;-83
2021/12/17 12:44:14;;;;;;;17.07;13.10;;;;;;;;;;5092921;28;20195;-83
2021/12/17 12:46:56;;;;;;;70.10;36.97;;;;;;;;;;5092831;28;20223;-84
2021/12/17 12:49:43;;;;;;;48.57;30.67;;;;;;;;;;5092427;28;20192;-84
2021/12/17 12:52:22;;;;;;;19.77;15.30;;;;;;;;;;5092823;28;20223;-84
2021/12/17 12:54:50;;;;;;;20.70;15.83;;;;;;;;;;5092387;28;20204;-83
2021/12/17 12:57:28;;;;;;;25.70;18.47;;;;;;;;;;5091993;28;20198;-84
2021/12/17 12:59:57;;;;;;;90.97;51.63;;;;;;;;;;5092679;28;20196;-84
2021/12/17 13:02:26;;;;;;;53.20;28.60;;;;;;;;;;5092453;28;20223;-84
2021/12/17 13:04:55;;;;;;;30.53;20.03;;;;;;;;;;5092755;28;20200;-84
2021/12/17 13:07:33;;;;;;;14.43;11.03;;;;;;;;;;5092534;28;20254;-84
2021/12/17 13:10:07;;;;;;;38.00;26.27;;;;;;;;;;5092274;28;20188;-84
2021/12/17 13:12:36;;;;;;;14.80;12.67;;;;;;;;;;5092552;28;20617;-84
2021/12/17 13:15:20;;;;;;;28.37;24.67;;;;;;;;;;5092371;28;20224;-84
2021/12/17 13:21:03;;;;;;;40.43;28.13;;;;;;;;;;5058529;28;20562;-84
2021/12/17 13:23:33;;;;;;;13.53;11.20;;;;;;;;;;5092177;28;20193;-84
2021/12/17 13:26:10;;;;;;;13.43;11.33;;;;;;;;;;5092212;28;20195;-84
2021/12/17 13:29:00;;;;;;;17.37;12.97;;;;;;;;;;5092353;28;20212;-84
2021/12/17 13:31:33;;;;;;;48.63;33.37;;;;;;;;;;5092179;28;20188;-85
2021/12/17 13:34:02;;;;;;;19.57;15.07;;;;;;;;;;5095813;28;20723;-84
2021/12/17 13:36:29;;;;;;;17.10;13.03;;;;;;;;;;5096305;28;20199;-85
2021/12/17 13:38:58;;;;;;;25.10;15.07;;;;;;;;;;5096412;28;20196;-85
2021/12/17 13:41:41;;;;;;;10.07;8.63;;;;;;;;;;5096400;28;20196;-84
2021/12/17 13:44:26;;;;;;;39.40;26.50;;;;;;;;;;5096083;28;20711;-84
2021/12/17 13:46:54;;;;;;;23.10;17.33;;;;;;;;;;5095893;28;20280;-84
2021/12/17 13:49:22;;;;;;;21.10;15.47;;;;;;;;;;5096014;28;20253;-84
2021/12/17 13:51:50;;;;;;;9.37;7.60;;;;;;;;;;5096052;28;20657;-84
2021/12/17 13:54:17;;;;;;;15.10;11.37;;;;;;;;;;5095826;28;20219;-84
2021/12/17 13:56:44;;;;;;;9.03;7.43;;;;;;;;;;5095732;28;20193;-84
2021/12/17 13:59:12;;;;;;;6.53;5.87;;;;;;;;;;5096141;28;20200;-85
2021/12/17 14:01:39;;;;;;;9.37;7.93;;;;;;;;;;5096004;28;20282;-84
2021/12/17 14:04:15;;;;;;;14.50;13.00;;;;;;;;;;5096002;28;20228;-84
2021/12/17 14:06:52;;;;;;;12.60;10.97;;;;;;;;;;5095932;28;20208;-84
2021/12/17 14:09:21;;;;;;;13.47;11.03;;;;;;;;;;5095729;28;20231;-84
2021/12/17 14:11:49;;;;;;;15.57;11.30;;;;;;;;;;5095551;28;20677;-84
2021/12/17 14:14:24;;;;;;;12.47;10.13;;;;;;;;;;5095411;28;20314;-84
2021/12/17 14:16:57;;;;;;;12.17;9.97;;;;;;;;;;5095289;28;20202;-84
2021/12/17 14:19:40;;;;;;;7.57;6.33;;;;;;;;;;5095470;28;20181;-84
2021/12/17 14:22:26;;;;;;;5.53;4.70;;;;;;;;;;5094095;28;20199;-84
2021/12/17 14:24:54;;;;;;;8.03;7.23;;;;;;;;;;5095327;28;20664;-84
2021/12/17 14:27:21;;;;;;;3.97;3.50;;;;;;;;;;5095410;28;20230;-84
2021/12/17 14:29:48;;;;;;;4.33;3.93;;;;;;;;;;5095277;28;20202;-84
2021/12/17 14:32:19;;;;;;;4.00;3.57;;;;;;;;;;5095504;28;20631;-84
2021/12/17 14:34:46;;;;;;;7.07;3.27;;;;;;;;;;5095006;28;20277;-84
2021/12/17 14:37:14;;;;;;;4.33;3.80;;;;;;;;;;5094998;28;20623;-84
2021/12/17 14:39:46;;;;;;;4.77;4.37;;;;;;;;;;5095285;28;20236;-84
2021/12/17 14:42:29;;;;;;;6.23;5.07;;;;;;;;;;5095264;28;20180;-84
2021/12/17 14:45:03;;;;;;;7.20;6.00;;;;;;;;;;5094948;28;20200;-84
2021/12/17 14:47:36;;;;;;;6.43;4.80;;;;;;;;;;5094940;28;20184;-83
2021/12/17 15:01:34;;;;;;;9.97;6.03;;;;;;;;;;5094549;28;20222;-84
2021/12/17 15:04:01;;;;;;;6.40;5.80;;;;;;;;;;5094923;28;20230;-84
2021/12/17 15:06:28;;;;;;;9.37;8.37;;;;;;;;;;5094749;28;20202;-83
2021/12/17 15:08:57;;;;;;;7.20;6.50;;;;;;;;;;5094354;28;20779;-84
2021/12/17 15:11:30;;;;;;;3.47;2.97;;;;;;;;;;5094356;28;20279;-84
2021/12/17 15:13:57;;;;;;;3.27;2.97;;;;;;;;;;5094443;28;20641;-84
2021/12/17 15:16:24;;;;;;;9.40;4.83;;;;;;;;;;5094835;28;20258;-84
2021/12/17 15:18:52;;;;;;;5.60;5.07;;;;;;;;;;5094453;28;20664;-84
2021/12/17 15:21:19;;;;;;;6.60;5.70;;;;;;;;;;5094137;28;20718;-84
2021/12/17 15:23:46;;;;;;;6.83;5.50;;;;;;;;;;5094529;28;20204;-84
2021/12/17 15:26:14;;;;;;;6.73;4.93;;;;;;;;;;5094118;28;20755;-84
2021/12/17 15:28:42;;;;;;;14.37;10.67;;;;;;;;;;5093973;28;20255;-83
2021/12/17 15:31:10;;;;;;;34.97;21.87;;;;;;;;;;5094149;28;20192;-84
2021/12/17 15:33:37;;;;;;;15.47;11.63;;;;;;;;;;5093856;28;20245;-84
2021/12/17 15:36:05;;;;;;;5.43;4.53;;;;;;;;;;5093877;28;20267;-84
2021/12/17 15:38:32;;;;;;;12.47;8.27;;;;;;;;;;5094096;28;20576;-84
2021/12/17 15:41:00;;;;;;;12.93;9.00;;;;;;;;;;5093699;28;20645;-83
2021/12/17 15:43:28;;;;;;;9.53;6.83;;;;;;;;;;5094086;28;20222;-84
2021/12/17 15:45:57;;;;;;;6.30;5.70;;;;;;;;;;5093717;28;20235;-84
2021/12/17 15:48:25;;;;;;;10.70;7.27;;;;;;;;;;5093651;28;20196;-84
2021/12/17 15:50:52;;;;;;;4.83;4.27;;;;;;;;;;5093607;28;20201;-84
2021/12/17 15:53:19;;;;;;;4.10;3.20;;;;;;;;;;5093449;28;20269;-84
2021/12/17 15:55:47;;;;;;;5.33;4.13;;;;;;;;;;5092959;28;20268;-84
2021/12/17 15:58:14;;;;;;;7.63;6.83;;;;;;;;;;5093900;28;20614;-84
2021/12/17 16:00:42;;;;;;;13.37;11.97;;;;;;;;;;5093447;28;20269;-83
2021/12/17 16:03:12;;;;;;;16.50;14.60;;;;;;;;;;5093350;28;20200;-84
2021/12/17 16:05:39;;;;;;;16.93;13.03;;;;;;;;;;5093542;28;20220;-84
2021/12/17 16:08:07;;;;;;;9.80;8.43;;;;;;;;;;5093247;28;20331;-83
2021/12/17 16:18:54;;;;;;;8.63;7.73;;;;;;;;;;5093408;28;20180;-84
2021/12/17 16:21:21;;;;;;;3.50;3.23;;;;;;;;;;5093305;28;20184;-83
2021/12/17 16:23:50;;;;;;;3.50;3.20;;;;;;;;;;5093042;28;20204;-84
2021/12/17 16:26:19;;;;;;;3.10;2.80;;;;;;;;;;5092966;28;20196;-84
2021/12/17 16:28:47;;;;;;;3.70;3.40;;;;;;;;;;5092834;28;20665;-83
2021/12/17 16:31:16;;;;;;;4.87;4.33;;;;;;;;;;5093209;28;20621;-84
2021/12/17 16:33:43;;;;;;;3.83;3.30;;;;;;;;;;5092808;28;20665;-84
2021/12/17 16:36:12;;;;;;;4.57;4.17;;;;;;;;;;5092705;28;20769;-83
2021/12/17 16:38:40;;;;;;;3.40;3.10;;;;;;;;;;5092746;28;20210;-84
2021/12/17 16:41:08;;;;;;;8.93;6.00;;;;;;;;;;5099763;28;20195;-84
2021/12/17 16:43:36;;;;;;;3.57;3.00;;;;;;;;;;5113222;28;20221;-84
2021/12/17 16:48:47;;;;;;;3.60;3.23;;;;;;;;;;5113221;28;20286;-84
2021/12/17 16:51:25;;;;;;;3.47;3.17;;;;;;;;;;5112675;28;20200;-84
2021/12/17 16:53:52;;;;;;;3.63;3.33;;;;;;;;;;5113121;28;20731;-83
2021/12/17 16:56:20;;;;;;;4.50;3.97;;;;;;;;;;5107849;28;20785;-83
2021/12/17 16:58:47;;;;;;;7.53;5.97;;;;;;;;;;5092767;28;20219;-83
2021/12/17 17:01:15;;;;;;;6.33;5.73;;;;;;;;;;5092309;28;20291;-83
2021/12/17 17:03:42;;;;;;;6.27;5.40;;;;;;;;;;5092947;28;20192;-83
2021/12/17 17:06:09;;;;;;;3.80;3.50;;;;;;;;;;5112281;28;20271;-84
2021/12/17 17:08:38;;;;;;;3.43;3.07;;;;;;;;;;5111922;28;20231;-83
2021/12/17 17:11:08;;;;;;;2.60;2.40;;;;;;;;;;5112558;28;20199;-83
2021/12/17 17:13:36;;;;;;;3.00;2.70;;;;;;;;;;5113186;28;20605;-84
2021/12/17 17:16:05;;;;;;;2.00;1.90;;;;;;;;;;5112650;28;20223;-83
2021/12/17 17:18:33;;;;;;;2.10;1.93;;;;;;;;;;5112445;28;20195;-84
2021/12/17 17:21:01;;;;;;;1.80;1.70;;;;;;;;;;5112334;28;20192;-83
2021/12/17 17:23:28;;;;;;;1.57;1.47;;;;;;;;;;5112422;28;20199;-83
2021/12/17 17:25:57;;;;;;;2.13;1.40;;;;;;;;;;5112362;28;20195;-83
2021/12/17 17:28:25;;;;;;;2.90;1.30;;;;;;;;;;5112521;28;20195;-83
2021/12/17 17:30:54;;;;;;;1.77;1.67;;;;;;;;;;5112431;28;20194;-83
2021/12/17 17:33:22;;;;;;;2.03;1.80;;;;;;;;;;5112255;28;20199;-84
2021/12/17 17:35:49;;;;;;;1.40;1.30;;;;;;;;;;5112154;28;20230;-84
2021/12/17 17:38:16;;;;;;;3.00;2.40;;;;;;;;;;5112263;28;20663;-83
2021/12/17 17:40:43;;;;;;;10.30;7.10;;;;;;;;;;5112064;28;20195;-84